createdAt,value
2017-10-01T00:00:21.064Z,90.57
2017-10-01T00:02:49.375Z,90.45
2017-10-01T00:05:18.453Z,90.76
2017-10-01T00:07:46.767Z,91.22
2017-10-01T00:10:15.073Z,91.16
2017-10-01T00:12:43.393Z,91.49
2017-10-01T00:15:12.453Z,91.47
2017-10-01T00:17:40.794Z,91.61
2017-10-01T00:20:09.085Z,91.74
2017-10-01T00:22:37.418Z,91.57
2017-10-01T00:25:05.728Z,91.12
2017-10-01T00:27:34.028Z,90.57
2017-10-01T00:30:03.118Z,90.85
2017-10-01T00:32:31.408Z,91.29
2017-10-01T00:34:59.762Z,91.02
2017-10-01T00:37:28.062Z,91.54
2017-10-01T00:39:56.373Z,91.64
2017-10-01T00:42:24.669Z,91.29
2017-10-01T00:44:53.749Z,91.15
2017-10-01T00:47:22.825Z,90.95
2017-10-01T00:49:51.155Z,91.05
2017-10-01T00:52:19.461Z,91.09
2017-10-01T00:54:47.753Z,90.87
2017-10-01T00:57:16.070Z,91.07
2017-10-01T00:59:44.374Z,91.00
2017-10-01T01:02:12.706Z,90.33
2017-10-01T01:04:41.787Z,90.78
2017-10-01T01:07:10.094Z,91.36
2017-10-01T01:09:39.169Z,91.37
2017-10-01T01:12:07.487Z,91.14
2017-10-01T01:14:35.786Z,90.87
2017-10-01T01:17:04.098Z,91.67
2017-10-01T01:19:32.409Z,91.50
2017-10-01T01:22:00.722Z,90.75
2017-10-01T01:24:29.785Z,90.92
2017-10-01T01:26:58.101Z,91.70
2017-10-01T01:29:26.417Z,91.36
2017-10-01T01:31:55.492Z,91.00
2017-10-01T01:34:23.809Z,91.02
2017-10-01T01:36:52.110Z,91.05
2017-10-01T01:39:20.422Z,90.83
2017-10-01T01:41:48.717Z,90.99
2017-10-01T01:44:17.801Z,90.87
2017-10-01T01:46:46.110Z,90.20
2017-10-01T01:49:14.447Z,90.61
2017-10-01T01:51:42.745Z,90.52
2017-10-01T01:54:11.838Z,90.38
2017-10-01T01:56:40.901Z,90.53
2017-10-01T01:59:09.205Z,90.12
2017-10-01T02:01:37.522Z,90.45
2017-10-01T02:04:05.820Z,90.42
2017-10-01T02:06:34.139Z,90.29
2017-10-01T02:09:03.211Z,90.73
2017-10-01T02:11:31.529Z,90.38
2017-10-01T02:14:00.590Z,91.04
2017-10-01T02:16:28.919Z,90.66
2017-10-01T02:18:57.238Z,90.60
2017-10-01T02:21:25.554Z,90.45
2017-10-01T02:23:53.858Z,90.92
2017-10-01T02:26:22.174Z,90.41
2017-10-01T02:28:50.481Z,90.42
2017-10-01T02:31:19.579Z,89.97
2017-10-01T02:33:48.700Z,90.49
2017-10-01T02:36:17.014Z,90.59
2017-10-01T02:38:45.333Z,91.29
2017-10-01T02:41:13.636Z,90.32
2017-10-01T02:43:41.949Z,90.11
2017-10-01T02:46:10.249Z,90.36
2017-10-01T02:48:39.335Z,90.86
2017-10-01T02:51:07.647Z,90.40
2017-10-01T02:53:35.971Z,90.35
2017-10-01T02:56:04.284Z,90.26
2017-10-01T02:58:33.371Z,90.57
2017-10-01T03:01:02.442Z,90.30
2017-10-01T03:03:30.751Z,90.77
2017-10-01T03:05:59.814Z,90.79
2017-10-01T03:08:28.150Z,90.51
2017-10-01T03:10:56.460Z,90.73
2017-10-01T03:13:24.761Z,90.64
2017-10-01T03:15:53.069Z,90.82
2017-10-01T03:18:21.373Z,90.82
2017-10-01T03:20:49.685Z,90.87
2017-10-01T03:23:17.989Z,90.90
2017-10-01T03:25:47.078Z,90.68
2017-10-01T03:28:16.142Z,90.73
2017-10-01T03:30:44.475Z,91.23
2017-10-01T03:33:12.786Z,91.05
2017-10-01T03:35:41.122Z,91.14
2017-10-01T03:38:09.445Z,90.88
2017-10-01T03:40:37.760Z,90.57
2017-10-01T03:43:06.838Z,90.90
2017-10-01T03:45:35.156Z,91.21
2017-10-01T03:48:03.468Z,91.13
2017-10-01T03:50:31.773Z,91.51
2017-10-01T03:53:00.102Z,91.35
2017-10-01T03:55:28.406Z,91.34
2017-10-01T03:57:56.717Z,91.00
2017-10-01T04:00:25.805Z,91.13
2017-10-01T04:02:54.113Z,90.78
2017-10-01T04:05:22.421Z,90.22
2017-10-01T04:07:50.734Z,90.86
2017-10-01T04:10:19.825Z,90.89
2017-10-01T04:12:48.169Z,90.51
2017-10-01T04:15:16.483Z,90.42
2017-10-01T04:17:44.789Z,90.63
2017-10-01T04:20:13.109Z,90.88
2017-10-01T04:22:41.418Z,91.34
2017-10-01T04:25:09.742Z,90.82
2017-10-01T04:27:38.070Z,91.12
2017-10-01T04:30:06.390Z,90.80
2017-10-01T04:32:34.693Z,90.84
2017-10-01T04:35:03.061Z,91.26
2017-10-01T04:37:31.368Z,91.53
2017-10-01T04:39:59.670Z,91.48
2017-10-01T04:42:28.756Z,91.30
2017-10-01T04:44:57.862Z,90.97
2017-10-01T04:47:26.965Z,91.55
2017-10-01T04:49:56.030Z,91.50
2017-10-01T04:52:24.346Z,91.13
2017-10-01T04:54:52.650Z,91.54
2017-10-01T04:57:20.970Z,91.66
2017-10-01T04:59:49.293Z,91.79
2017-10-01T05:02:17.639Z,92.04
2017-10-01T05:04:46.719Z,91.63
2017-10-01T05:07:15.056Z,92.02
2017-10-01T05:09:43.376Z,92.26
2017-10-01T05:12:11.685Z,92.10
2017-10-01T05:14:39.998Z,92.23
2017-10-01T05:17:09.136Z,92.10
2017-10-01T05:19:38.217Z,92.54
2017-10-01T05:22:06.530Z,92.22
2017-10-01T05:24:34.841Z,92.07
2017-10-01T05:27:03.148Z,92.06
2017-10-01T05:29:31.461Z,91.77
2017-10-01T05:31:59.777Z,91.44
2017-10-01T05:34:28.121Z,91.33
2017-10-01T05:36:56.426Z,91.76
2017-10-01T05:39:25.504Z,91.48
2017-10-01T05:41:53.860Z,91.78
2017-10-01T05:44:22.929Z,91.65
2017-10-01T05:46:51.253Z,91.53
2017-10-01T05:49:19.558Z,91.74
2017-10-01T05:51:47.875Z,91.57
2017-10-01T05:54:17.005Z,91.78
2017-10-01T05:56:45.334Z,91.73
2017-10-01T05:59:13.677Z,92.02
2017-10-01T06:01:41.994Z,91.77
2017-10-01T06:04:11.077Z,91.53
2017-10-01T06:06:39.392Z,91.55
2017-10-01T06:09:07.713Z,91.29
2017-10-01T06:11:36.045Z,91.15
2017-10-01T06:14:04.348Z,91.46
2017-10-01T06:16:32.656Z,91.39
2017-10-01T06:19:00.988Z,91.60
2017-10-01T06:21:29.301Z,90.81
2017-10-01T06:23:57.617Z,90.80
2017-10-01T06:26:26.687Z,90.88
2017-10-01T06:28:55.001Z,91.37
2017-10-01T06:31:23.318Z,91.04
2017-10-01T06:33:51.653Z,91.17
2017-10-01T06:36:20.729Z,90.69
2017-10-01T06:38:49.038Z,90.28
2017-10-01T06:41:17.353Z,89.96
2017-10-01T06:43:45.663Z,90.08
2017-10-01T06:46:13.979Z,90.70
2017-10-01T06:48:42.294Z,90.48
2017-10-01T06:51:10.622Z,90.10
2017-10-01T06:53:38.926Z,89.64
2017-10-01T06:56:07.245Z,89.41
2017-10-01T06:58:35.555Z,90.12
2017-10-01T07:01:03.869Z,89.68
2017-10-01T07:03:32.189Z,89.89
2017-10-01T07:06:01.267Z,89.49
2017-10-01T07:08:29.590Z,89.09
2017-10-01T07:10:57.898Z,89.08
2017-10-01T07:13:26.218Z,88.90
2017-10-01T07:15:55.293Z,88.67
2017-10-01T07:18:23.614Z,88.92
2017-10-01T07:20:51.921Z,87.67
2017-10-01T07:23:20.246Z,87.29
2017-10-01T07:25:49.319Z,88.28
2017-10-01T07:28:17.637Z,88.20
2017-10-01T07:30:45.946Z,88.13
2017-10-01T07:33:14.282Z,87.21
2017-10-01T07:35:43.358Z,87.30
2017-10-01T07:38:11.676Z,87.00
2017-10-01T07:40:39.997Z,88.39
2017-10-01T07:43:08.317Z,87.18
2017-10-01T07:45:36.635Z,86.86
2017-10-01T07:48:05.718Z,86.23
2017-10-01T07:50:34.043Z,86.49
2017-10-01T07:53:03.142Z,86.73
2017-10-01T07:55:32.273Z,85.95
2017-10-01T07:58:00.588Z,86.18
2017-10-01T08:00:28.924Z,85.85
2017-10-01T08:02:57.235Z,85.58
2017-10-01T08:05:25.590Z,85.51
2017-10-01T08:07:53.902Z,85.11
2017-10-01T08:10:22.229Z,85.25
2017-10-01T08:12:51.545Z,85.61
2017-10-01T08:15:19.852Z,86.32
2017-10-01T08:17:48.174Z,86.60
2017-10-01T08:20:17.254Z,86.03
2017-10-01T08:22:46.333Z,85.42
2017-10-01T08:25:14.645Z,85.87
2017-10-01T08:27:42.969Z,85.33
2017-10-01T08:30:11.284Z,85.22
2017-10-01T08:32:40.380Z,84.44
2017-10-01T08:35:09.461Z,84.29
2017-10-01T08:37:37.806Z,83.84
2017-10-01T08:40:06.128Z,83.76
2017-10-01T08:42:35.205Z,82.55
2017-10-01T08:45:03.534Z,82.86
2017-10-01T08:47:31.845Z,81.54
2017-10-01T08:50:00.169Z,81.51
2017-10-01T08:52:28.474Z,81.51
2017-10-01T08:54:56.796Z,81.45
2017-10-01T08:57:25.102Z,82.06
2017-10-01T08:59:53.414Z,82.56
2017-10-01T09:02:21.721Z,82.52
2017-10-01T09:04:50.041Z,80.80
2017-10-01T09:07:18.347Z,79.70
2017-10-01T09:09:46.688Z,79.35
2017-10-01T09:12:14.997Z,78.75
2017-10-01T09:14:43.331Z,76.57
2017-10-01T09:17:12.412Z,74.27
2017-10-01T09:19:40.725Z,73.00
2017-10-01T09:22:09.033Z,73.44
2017-10-01T09:24:37.348Z,76.63
2017-10-01T09:27:05.673Z,76.55
2017-10-01T09:29:33.997Z,73.79
2017-10-01T09:32:02.327Z,74.19
2017-10-01T09:34:30.650Z,73.00
2017-10-01T09:36:59.769Z,74.49
2017-10-01T09:39:28.841Z,73.62
2017-10-01T09:41:57.157Z,70.56
2017-10-01T09:44:25.486Z,71.24
2017-10-01T09:46:53.802Z,71.46
2017-10-01T09:49:22.117Z,72.95
2017-10-01T09:51:50.430Z,72.41
2017-10-01T09:54:18.748Z,71.21
2017-10-01T09:56:47.050Z,71.69
2017-10-01T09:59:15.382Z,71.83
2017-10-01T10:01:44.457Z,72.36
2017-10-01T10:04:12.765Z,71.71
2017-10-01T10:06:41.070Z,71.53
2017-10-01T10:09:09.401Z,71.39
2017-10-01T10:11:38.479Z,70.97
2017-10-01T10:14:06.801Z,70.37
2017-10-01T10:16:35.117Z,69.83
2017-10-01T10:19:03.415Z,71.07
2017-10-01T10:21:31.726Z,68.87
2017-10-01T10:24:00.030Z,67.38
2017-10-01T10:26:28.343Z,67.47
2017-10-01T10:28:56.655Z,68.08
2017-10-01T10:31:24.969Z,67.86
2017-10-01T10:33:53.285Z,69.39
2017-10-01T10:36:22.377Z,68.17
2017-10-01T10:38:50.698Z,68.01
2017-10-01T10:41:19.029Z,70.01
2017-10-01T10:43:47.333Z,69.70
2017-10-01T10:46:15.637Z,69.70
2017-10-01T10:48:43.957Z,70.99
2017-10-01T10:51:12.259Z,71.15
2017-10-01T10:53:41.350Z,71.49
2017-10-01T10:56:10.429Z,71.83
2017-10-01T10:58:38.758Z,70.89
2017-10-01T11:01:07.067Z,70.50
2017-10-01T11:03:35.394Z,70.43
2017-10-01T11:06:03.705Z,69.27
2017-10-01T11:08:32.031Z,69.10
2017-10-01T11:11:01.123Z,68.67
2017-10-01T11:13:30.255Z,68.33
2017-10-01T11:15:58.573Z,68.29
2017-10-01T11:18:26.885Z,67.24
2017-10-01T11:20:55.207Z,65.88
2017-10-01T11:23:27.229Z,64.12
2017-10-01T11:25:55.550Z,64.10
2017-10-01T11:28:23.854Z,64.08
2017-10-01T11:30:52.165Z,64.04
2017-10-01T11:33:20.488Z,64.20
2017-10-01T11:35:49.569Z,63.16
2017-10-01T11:38:17.891Z,64.75
2017-10-01T11:40:46.989Z,65.05
2017-10-01T11:43:16.067Z,66.05
2017-10-01T11:45:44.360Z,66.64
2017-10-01T11:48:13.438Z,68.21
2017-10-01T11:50:41.749Z,69.08
2017-10-01T11:53:10.097Z,69.55
2017-10-01T11:55:38.422Z,68.48
2017-10-01T11:58:06.737Z,69.21
2017-10-01T12:00:35.041Z,69.72
2017-10-01T12:03:03.353Z,69.28
2017-10-01T12:05:31.659Z,69.51
2017-10-01T12:07:59.969Z,70.17
2017-10-01T12:10:28.279Z,69.95
2017-10-01T12:12:56.593Z,69.53
2017-10-01T12:15:24.902Z,70.39
2017-10-01T12:17:53.980Z,70.31
2017-10-01T12:20:22.285Z,69.99
2017-10-01T12:22:51.390Z,70.00
2017-10-01T12:25:19.718Z,69.36
2017-10-01T12:27:48.029Z,68.72
2017-10-01T12:30:17.117Z,69.40
2017-10-01T12:32:45.423Z,68.77
2017-10-01T12:35:13.737Z,67.20
2017-10-01T12:37:42.069Z,67.20
2017-10-01T12:40:10.393Z,67.83
2017-10-01T12:42:39.454Z,66.66
2017-10-01T12:45:07.762Z,66.33
2017-10-01T12:47:36.061Z,66.66
2017-10-01T12:50:04.365Z,64.75
2017-10-01T12:52:33.446Z,64.40
2017-10-01T12:55:02.613Z,63.54
2017-10-01T12:57:30.923Z,63.78
2017-10-01T12:59:59.997Z,63.62
2017-10-01T13:02:28.308Z,61.61
2017-10-01T13:04:56.614Z,60.86
2017-10-01T13:07:24.929Z,62.09
2017-10-01T13:09:53.243Z,61.77
2017-10-01T13:12:21.561Z,63.04
2017-10-01T13:14:49.860Z,62.44
2017-10-01T13:17:18.169Z,62.97
2017-10-01T13:19:46.488Z,63.00
2017-10-01T13:22:14.805Z,62.54
2017-10-01T13:24:43.120Z,62.21
2017-10-01T13:27:11.449Z,62.35
2017-10-01T13:29:39.749Z,60.95
2017-10-01T13:32:08.824Z,60.40
2017-10-01T13:34:37.141Z,60.33
2017-10-01T13:37:05.437Z,59.52
2017-10-01T13:39:33.754Z,59.11
2017-10-01T13:42:02.067Z,59.54
2017-10-01T13:44:31.147Z,59.50
2017-10-01T13:47:00.284Z,59.29
2017-10-01T13:49:28.617Z,59.80
2017-10-01T13:51:56.934Z,60.78
2017-10-01T13:54:25.262Z,61.48
2017-10-01T13:56:53.594Z,62.10
2017-10-01T13:59:21.913Z,63.60
2017-10-01T14:01:50.248Z,64.19
2017-10-01T14:04:18.549Z,63.86
2017-10-01T14:06:46.869Z,63.20
2017-10-01T14:09:15.941Z,62.30
2017-10-01T14:11:44.370Z,62.02
2017-10-01T14:14:12.678Z,60.85
2017-10-01T14:16:41.756Z,60.15
2017-10-01T14:19:10.062Z,59.24
2017-10-01T14:21:38.374Z,58.20
2017-10-01T14:24:07.449Z,56.95
2017-10-01T14:26:35.751Z,57.94
2017-10-01T14:29:04.831Z,59.41
2017-10-01T14:31:33.906Z,61.55
2017-10-01T14:34:02.220Z,61.57
2017-10-01T14:36:30.537Z,60.13
2017-10-01T14:38:58.870Z,60.86
2017-10-01T14:41:27.937Z,62.77
2017-10-01T14:43:56.241Z,63.28
2017-10-01T14:46:25.321Z,61.44
2017-10-01T14:48:53.630Z,60.12
2017-10-01T14:51:21.954Z,61.29
2017-10-01T14:53:50.261Z,61.02
2017-10-01T14:56:19.345Z,61.30
2017-10-01T14:58:48.434Z,60.98
2017-10-01T15:01:16.766Z,60.59
2017-10-01T15:03:45.079Z,59.10
2017-10-01T15:06:13.398Z,61.97
2017-10-01T15:08:42.477Z,60.88
2017-10-01T15:11:11.577Z,60.05
2017-10-01T15:13:40.638Z,61.10
2017-10-01T15:16:08.970Z,61.13
2017-10-01T15:18:37.289Z,61.45
2017-10-01T15:21:05.599Z,61.79
2017-10-01T15:23:34.689Z,61.67
2017-10-01T15:26:03.761Z,61.39
2017-10-01T15:28:32.083Z,60.70
2017-10-01T15:31:01.163Z,60.44
2017-10-01T15:33:30.293Z,60.39
2017-10-01T15:35:58.593Z,60.72
2017-10-01T15:38:26.905Z,61.24
2017-10-01T15:40:56.053Z,62.23
2017-10-01T15:43:24.358Z,62.83
2017-10-01T15:45:52.673Z,63.58
2017-10-01T15:48:21.741Z,64.78
2017-10-01T15:50:50.061Z,64.38
2017-10-01T15:53:18.420Z,64.91
2017-10-01T15:55:47.510Z,65.29
2017-10-01T15:58:16.578Z,65.74
2017-10-01T16:00:44.916Z,67.30
2017-10-01T16:03:13.218Z,67.95
2017-10-01T16:05:41.525Z,68.89
2017-10-01T16:08:09.858Z,68.52
2017-10-01T16:10:38.157Z,69.23
2017-10-01T16:13:06.476Z,70.71
2017-10-01T16:15:35.551Z,71.42
2017-10-01T16:18:03.863Z,72.74
2017-10-01T16:20:32.205Z,73.54
2017-10-01T16:23:00.519Z,72.95
2017-10-01T16:25:28.828Z,71.62
2017-10-01T16:27:57.134Z,72.46
2017-10-01T16:30:25.494Z,73.57
2017-10-01T16:32:53.836Z,77.16
2017-10-01T16:35:22.133Z,75.48
2017-10-01T16:37:50.430Z,75.49
2017-10-01T16:40:18.742Z,75.97
2017-10-01T16:42:47.829Z,76.76
2017-10-01T16:45:16.923Z,77.82
2017-10-01T16:47:45.242Z,78.21
2017-10-01T16:50:13.553Z,78.24
2017-10-01T16:52:41.877Z,78.98
2017-10-01T16:55:11.017Z,78.73
2017-10-01T16:57:39.319Z,79.33
2017-10-01T17:00:07.657Z,79.84
2017-10-01T17:02:35.958Z,80.10
2017-10-01T17:05:04.355Z,80.28
2017-10-01T17:07:32.678Z,80.44
2017-10-01T17:10:01.007Z,81.09
2017-10-01T17:12:29.326Z,80.98
2017-10-01T17:14:57.638Z,81.37
2017-10-01T17:17:25.969Z,81.20
2017-10-01T17:19:55.060Z,81.38
2017-10-01T17:22:24.142Z,81.32
2017-10-01T17:24:52.450Z,81.22
2017-10-01T17:27:20.781Z,82.10
2017-10-01T17:29:49.087Z,82.01
2017-10-01T17:32:18.157Z,82.05
2017-10-01T17:34:46.478Z,82.31
2017-10-01T17:37:14.781Z,82.58
2017-10-01T17:39:43.102Z,82.51
2017-10-01T17:42:12.168Z,82.82
2017-10-01T17:44:40.485Z,83.46
2017-10-01T17:47:09.579Z,83.98
2017-10-01T17:49:38.674Z,83.67
2017-10-01T17:52:07.780Z,83.66
2017-10-01T17:54:36.127Z,83.93
2017-10-01T17:57:04.441Z,84.08
2017-10-01T17:59:32.746Z,84.56
2017-10-01T18:02:01.061Z,84.48
2017-10-01T18:04:29.372Z,84.87
2017-10-01T18:06:57.705Z,84.81
2017-10-01T18:09:26.011Z,84.88
2017-10-01T18:11:55.087Z,84.79
2017-10-01T18:14:23.405Z,85.20
2017-10-01T18:16:51.793Z,85.30
2017-10-01T18:19:20.093Z,85.64
2017-10-01T18:21:48.421Z,85.90
2017-10-01T18:24:17.494Z,86.16
2017-10-01T18:26:45.839Z,86.05
2017-10-01T18:29:14.160Z,86.23
2017-10-01T18:31:43.237Z,86.36
2017-10-01T18:34:11.557Z,86.88
2017-10-01T18:36:39.950Z,86.79
2017-10-01T18:39:08.274Z,86.94
2017-10-01T18:41:36.593Z,87.19
2017-10-01T18:44:04.914Z,87.05
2017-10-01T18:46:33.221Z,87.17
2017-10-01T18:49:02.362Z,87.20
2017-10-01T18:51:30.693Z,87.13
2017-10-01T18:53:59.784Z,87.14
2017-10-01T18:56:28.095Z,87.31
2017-10-01T18:58:56.409Z,87.25
2017-10-01T19:01:24.721Z,87.31
2017-10-01T19:03:53.803Z,87.77
2017-10-01T19:06:22.134Z,87.88
2017-10-01T19:08:50.446Z,88.00
2017-10-01T19:11:18.786Z,88.16
2017-10-01T19:13:47.090Z,88.21
2017-10-01T19:16:15.399Z,88.07
2017-10-01T19:18:43.719Z,88.36
2017-10-01T19:21:12.029Z,88.06
2017-10-01T19:23:41.113Z,88.10
2017-10-01T19:26:09.425Z,87.99
2017-10-01T19:28:37.738Z,88.19
2017-10-01T19:31:06.045Z,88.31
2017-10-01T19:33:34.373Z,88.33
2017-10-01T19:36:03.437Z,88.13
2017-10-01T19:38:31.776Z,88.13
2017-10-01T19:41:00.091Z,88.61
2017-10-01T19:43:28.401Z,88.70
2017-10-01T19:45:57.501Z,88.89
2017-10-01T19:48:25.830Z,89.42
2017-10-01T19:50:54.155Z,89.22
2017-10-01T19:53:22.473Z,89.21
2017-10-01T19:55:50.786Z,89.32
2017-10-01T19:58:19.111Z,89.23
2017-10-01T20:00:47.429Z,89.36
2017-10-01T20:03:15.737Z,89.46
2017-10-01T20:05:44.845Z,89.54
2017-10-01T20:08:13.150Z,89.45
2017-10-01T20:10:41.464Z,89.56
2017-10-01T20:13:09.777Z,89.69
2017-10-01T20:15:38.089Z,89.65
2017-10-01T20:18:06.409Z,90.09
2017-10-01T20:20:35.510Z,90.15
2017-10-01T20:23:04.595Z,90.37
2017-10-01T20:25:32.898Z,90.22
2017-10-01T20:28:01.222Z,90.32
2017-10-01T20:30:29.532Z,90.69
2017-10-01T20:32:58.620Z,90.84
2017-10-01T20:35:26.934Z,90.72
2017-10-01T20:37:55.278Z,91.04
2017-10-01T20:40:23.586Z,90.87
2017-10-01T20:42:51.899Z,91.04
2017-10-01T20:45:20.229Z,90.96
2017-10-01T20:47:48.558Z,90.95
2017-10-01T20:50:16.889Z,90.99
2017-10-01T20:52:45.211Z,91.38
2017-10-01T20:55:13.542Z,91.46
2017-10-01T20:57:41.851Z,91.77
2017-10-01T21:00:10.169Z,91.96
2017-10-01T21:02:38.485Z,92.12
2017-10-01T21:05:06.821Z,91.87
2017-10-01T21:07:35.126Z,91.99
2017-10-01T21:10:04.202Z,92.30
2017-10-01T21:12:33.294Z,92.70
2017-10-01T21:15:01.609Z,92.72
2017-10-01T21:17:29.932Z,92.47
2017-10-01T21:19:58.259Z,92.42
2017-10-01T21:22:26.586Z,92.68
2017-10-01T21:24:54.902Z,92.59
2017-10-01T21:27:23.977Z,92.74
2017-10-01T21:29:52.312Z,92.82
2017-10-01T21:32:20.649Z,92.44
2017-10-01T21:34:49.730Z,92.93
2017-10-01T21:37:18.084Z,92.85
2017-10-01T21:39:46.401Z,93.41
2017-10-01T21:42:15.480Z,93.62
2017-10-01T21:44:43.802Z,93.50
2017-10-01T21:47:12.111Z,93.48
2017-10-01T21:49:40.448Z,93.43
2017-10-01T21:52:08.764Z,93.47
2017-10-01T21:54:37.090Z,93.34
2017-10-01T21:57:06.170Z,93.56
2017-10-01T21:59:35.282Z,93.66
2017-10-01T22:02:03.592Z,93.47
2017-10-01T22:04:31.906Z,93.43
2017-10-01T22:07:00.234Z,93.67
2017-10-01T22:09:28.551Z,93.91
2017-10-01T22:11:56.882Z,94.00
2017-10-01T22:14:25.193Z,94.10
2017-10-01T22:16:53.518Z,94.06
2017-10-01T22:19:22.611Z,93.69
2017-10-01T22:21:50.947Z,93.75
2017-10-01T22:24:19.266Z,93.78
2017-10-01T22:26:48.374Z,93.96
2017-10-01T22:29:16.693Z,94.03
2017-10-01T22:31:45.025Z,94.12
2017-10-01T22:34:13.355Z,94.11
2017-10-01T22:36:41.673Z,93.99
2017-10-01T22:39:10.770Z,94.04
2017-10-01T22:41:39.867Z,94.01
2017-10-01T22:44:08.986Z,94.17
2017-10-01T22:46:37.309Z,94.25
2017-10-01T22:49:05.630Z,94.38
2017-10-01T22:51:33.970Z,94.16
2017-10-01T22:54:02.271Z,93.96
2017-10-01T22:56:30.595Z,94.08
2017-10-01T22:58:58.963Z,94.25
2017-10-01T23:01:27.269Z,94.36
2017-10-01T23:03:55.561Z,94.36
2017-10-01T23:06:23.873Z,94.47
2017-10-01T23:08:52.179Z,94.37
2017-10-01T23:11:20.498Z,94.19
2017-10-01T23:13:48.835Z,94.07
2017-10-01T23:16:17.165Z,94.04
2017-10-01T23:18:46.253Z,94.06
2017-10-01T23:21:15.342Z,93.98
2017-10-01T23:23:43.661Z,93.97
2017-10-01T23:26:11.978Z,93.90
2017-10-01T23:28:40.280Z,93.91
2017-10-01T23:31:09.404Z,93.95
2017-10-01T23:33:37.722Z,94.01
2017-10-01T23:36:06.054Z,94.08
2017-10-01T23:38:34.366Z,94.06
2017-10-01T23:41:02.697Z,94.24
2017-10-01T23:43:31.026Z,94.14
2017-10-01T23:45:59.340Z,94.12
2017-10-01T23:48:28.430Z,94.22
2017-10-01T23:50:57.521Z,94.15
2017-10-01T23:53:25.856Z,94.04
2017-10-01T23:55:54.161Z,94.16
2017-10-01T23:58:22.491Z,94.13
